sensor_id;sensor_type;location;lat;lon;timestamp;P1;durP1;ratioP1;P2;durP2;ratioP2
49464;SDS011;35358;49.342;8.802;2022-10-01T00:01:05;10.32;;;6.18;;
49464;SDS011;35358;49.342;8.802;2022-10-01T00:03:33;8.02;;;5.97;;
49464;SDS011;35358;49.342;8.802;2022-10-01T00:06:06;8.10;;;6.03;;
49464;SDS011;35358;49.342;8.802;2022-10-01T00:08:41;7.03;;;5.23;;
49464;SDS011;35358;49.342;8.802;2022-10-01T00:13:40;9.32;;;7.10;;
49464;SDS011;35358;49.342;8.802;2022-10-01T00:16:07;22.85;;;13.73;;
49464;SDS011;35358;49.342;8.802;2022-10-01T00:18:39;16.52;;;11.45;;
49464;SDS011;35358;49.342;8.802;2022-10-01T00:21:11;21.63;;;11.40;;
49464;SDS011;35358;49.342;8.802;2022-10-01T00:23:41;12.38;;;8.95;;
49464;SDS011;35358;49.342;8.802;2022-10-01T00:26:13;9.38;;;7.13;;
49464;SDS011;35358;49.342;8.802;2022-10-01T00:28:46;8.65;;;6.35;;
49464;SDS011;35358;49.342;8.802;2022-10-01T00:31:16;8.23;;;5.80;;
49464;SDS011;35358;49.342;8.802;2022-10-01T00:33:42;8.30;;;5.68;;
49464;SDS011;35358;49.342;8.802;2022-10-01T00:36:11;12.05;;;5.75;;
49464;SDS011;35358;49.342;8.802;2022-10-01T00:38:43;8.57;;;5.85;;
49464;SDS011;35358;49.342;8.802;2022-10-01T00:41:12;8.38;;;5.45;;
49464;SDS011;35358;49.342;8.802;2022-10-01T00:43:47;12.77;;;5.88;;
49464;SDS011;35358;49.342;8.802;2022-10-01T00:46:19;14.13;;;7.03;;
49464;SDS011;35358;49.342;8.802;2022-10-01T00:48:55;13.77;;;6.60;;
49464;SDS011;35358;49.342;8.802;2022-10-01T00:51:29;11.27;;;6.10;;
49464;SDS011;35358;49.342;8.802;2022-10-01T00:54:04;11.00;;;5.90;;
49464;SDS011;35358;49.342;8.802;2022-10-01T00:56:40;14.18;;;6.95;;
49464;SDS011;35358;49.342;8.802;2022-10-01T00:59:06;11.25;;;6.75;;
49464;SDS011;35358;49.342;8.802;2022-10-01T01:01:33;13.57;;;6.93;;
49464;SDS011;35358;49.342;8.802;2022-10-01T01:04:03;21.60;;;6.78;;
49464;SDS011;35358;49.342;8.802;2022-10-01T01:06:42;24.02;;;5.90;;
49464;SDS011;35358;49.342;8.802;2022-10-01T01:09:08;22.50;;;7.00;;
49464;SDS011;35358;49.342;8.802;2022-10-01T01:11:36;9.98;;;6.30;;
49464;SDS011;35358;49.342;8.802;2022-10-01T01:16:48;26.45;;;5.90;;
49464;SDS011;35358;49.342;8.802;2022-10-01T01:22:28;20.88;;;5.40;;
49464;SDS011;35358;49.342;8.802;2022-10-01T01:27:37;8.45;;;6.18;;
49464;SDS011;35358;49.342;8.802;2022-10-01T01:30:13;18.85;;;6.53;;
49464;SDS011;35358;49.342;8.802;2022-10-01T01:35:18;9.27;;;6.35;;
49464;SDS011;35358;49.342;8.802;2022-10-01T01:37:52;12.10;;;6.65;;
49464;SDS011;35358;49.342;8.802;2022-10-01T01:40:22;10.60;;;6.03;;
49464;SDS011;35358;49.342;8.802;2022-10-01T01:42:49;9.13;;;5.82;;
49464;SDS011;35358;49.342;8.802;2022-10-01T01:45:19;18.58;;;6.97;;
49464;SDS011;35358;49.342;8.802;2022-10-01T01:47:49;9.70;;;6.60;;
49464;SDS011;35358;49.342;8.802;2022-10-01T01:50:20;8.80;;;5.68;;
49464;SDS011;35358;49.342;8.802;2022-10-01T01:52:50;14.52;;;6.10;;
49464;SDS011;35358;49.342;8.802;2022-10-01T01:55:22;48.78;;;7.20;;
49464;SDS011;35358;49.342;8.802;2022-10-01T01:57:49;15.02;;;6.13;;
49464;SDS011;35358;49.342;8.802;2022-10-01T02:00:17;11.70;;;6.38;;
49464;SDS011;35358;49.342;8.802;2022-10-01T02:02:45;11.35;;;5.95;;
49464;SDS011;35358;49.342;8.802;2022-10-01T02:05:16;41.90;;;7.93;;
49464;SDS011;35358;49.342;8.802;2022-10-01T02:13:06;7.88;;;5.05;;
49464;SDS011;35358;49.342;8.802;2022-10-01T02:18:51;8.50;;;5.43;;
49464;SDS011;35358;49.342;8.802;2022-10-01T02:23:56;7.72;;;4.95;;
49464;SDS011;35358;49.342;8.802;2022-10-01T02:26:33;7.05;;;5.13;;
49464;SDS011;35358;49.342;8.802;2022-10-01T02:29:02;10.55;;;5.93;;
49464;SDS011;35358;49.342;8.802;2022-10-01T02:31:32;10.05;;;5.38;;
49464;SDS011;35358;49.342;8.802;2022-10-01T02:33:58;9.10;;;5.70;;
49464;SDS011;35358;49.342;8.802;2022-10-01T02:36:28;9.18;;;5.80;;
49464;SDS011;35358;49.342;8.802;2022-10-01T02:38:59;8.93;;;5.40;;
49464;SDS011;35358;49.342;8.802;2022-10-01T02:41:29;8.18;;;5.50;;
49464;SDS011;35358;49.342;8.802;2022-10-01T02:44:02;6.82;;;4.93;;
49464;SDS011;35358;49.342;8.802;2022-10-01T02:46:40;7.95;;;5.28;;
49464;SDS011;35358;49.342;8.802;2022-10-01T02:49:14;6.07;;;4.65;;
49464;SDS011;35358;49.342;8.802;2022-10-01T02:54:28;6.57;;;4.78;;
49464;SDS011;35358;49.342;8.802;2022-10-01T02:56:59;5.70;;;4.35;;
49464;SDS011;35358;49.342;8.802;2022-10-01T02:59:43;5.40;;;4.30;;
49464;SDS011;35358;49.342;8.802;2022-10-01T03:02:14;12.20;;;6.63;;
49464;SDS011;35358;49.342;8.802;2022-10-01T03:04:40;8.80;;;5.65;;
49464;SDS011;35358;49.342;8.802;2022-10-01T03:07:05;11.48;;;6.82;;
49464;SDS011;35358;49.342;8.802;2022-10-01T03:09:32;12.57;;;6.20;;
49464;SDS011;35358;49.342;8.802;2022-10-01T03:12:01;14.40;;;6.88;;
49464;SDS011;35358;49.342;8.802;2022-10-01T03:14:26;11.98;;;6.47;;
49464;SDS011;35358;49.342;8.802;2022-10-01T03:16:56;8.23;;;5.68;;
49464;SDS011;35358;49.342;8.802;2022-10-01T03:19:21;7.35;;;4.75;;
49464;SDS011;35358;49.342;8.802;2022-10-01T03:21:49;9.70;;;5.65;;
49464;SDS011;35358;49.342;8.802;2022-10-01T03:24:15;8.27;;;4.90;;
49464;SDS011;35358;49.342;8.802;2022-10-01T03:26:40;5.65;;;4.53;;
49464;SDS011;35358;49.342;8.802;2022-10-01T03:29:06;5.03;;;4.53;;
49464;SDS011;35358;49.342;8.802;2022-10-01T03:31:31;5.40;;;4.50;;
49464;SDS011;35358;49.342;8.802;2022-10-01T03:33:57;7.65;;;4.72;;
49464;SDS011;35358;49.342;8.802;2022-10-01T03:36:26;7.25;;;4.68;;
49464;SDS011;35358;49.342;8.802;2022-10-01T03:38:51;6.45;;;4.78;;
49464;SDS011;35358;49.342;8.802;2022-10-01T03:41:17;6.28;;;4.20;;
49464;SDS011;35358;49.342;8.802;2022-10-01T03:43:42;6.05;;;4.50;;
49464;SDS011;35358;49.342;8.802;2022-10-01T03:46:08;8.43;;;4.57;;
49464;SDS011;35358;49.342;8.802;2022-10-01T03:48:36;9.02;;;4.20;;
49464;SDS011;35358;49.342;8.802;2022-10-01T03:51:02;9.20;;;4.22;;
49464;SDS011;35358;49.342;8.802;2022-10-01T03:53:28;4.55;;;3.85;;
49464;SDS011;35358;49.342;8.802;2022-10-01T03:55:58;7.00;;;4.15;;
49464;SDS011;35358;49.342;8.802;2022-10-01T03:58:26;7.05;;;4.75;;
49464;SDS011;35358;49.342;8.802;2022-10-01T04:00:54;6.47;;;4.28;;
49464;SDS011;35358;49.342;8.802;2022-10-01T04:03:24;5.57;;;4.15;;
49464;SDS011;35358;49.342;8.802;2022-10-01T04:05:52;6.40;;;4.25;;
49464;SDS011;35358;49.342;8.802;2022-10-01T04:08:17;7.93;;;3.38;;
49464;SDS011;35358;49.342;8.802;2022-10-01T04:10:43;7.07;;;4.65;;
49464;SDS011;35358;49.342;8.802;2022-10-01T04:13:11;5.55;;;4.30;;
49464;SDS011;35358;49.342;8.802;2022-10-01T04:15:38;5.30;;;4.80;;
49464;SDS011;35358;49.342;8.802;2022-10-01T04:18:04;5.25;;;4.47;;
49464;SDS011;35358;49.342;8.802;2022-10-01T04:20:31;5.55;;;4.15;;
49464;SDS011;35358;49.342;8.802;2022-10-01T04:22:58;5.50;;;4.32;;
49464;SDS011;35358;49.342;8.802;2022-10-01T04:25:26;5.63;;;4.28;;
49464;SDS011;35358;49.342;8.802;2022-10-01T04:28:00;4.72;;;4.18;;
49464;SDS011;35358;49.342;8.802;2022-10-01T04:30:31;4.75;;;3.90;;
49464;SDS011;35358;49.342;8.802;2022-10-01T04:33:03;6.57;;;4.00;;
49464;SDS011;35358;49.342;8.802;2022-10-01T04:35:30;6.65;;;4.18;;
49464;SDS011;35358;49.342;8.802;2022-10-01T04:37:59;4.88;;;4.20;;
49464;SDS011;35358;49.342;8.802;2022-10-01T04:40:28;9.33;;;4.60;;
49464;SDS011;35358;49.342;8.802;2022-10-01T04:42:54;7.15;;;3.90;;
49464;SDS011;35358;49.342;8.802;2022-10-01T04:45:20;6.05;;;4.10;;
49464;SDS011;35358;49.342;8.802;2022-10-01T04:47:49;11.75;;;4.53;;
49464;SDS011;35358;49.342;8.802;2022-10-01T04:50:16;6.10;;;3.95;;
49464;SDS011;35358;49.342;8.802;2022-10-01T04:52:42;7.25;;;4.45;;
49464;SDS011;35358;49.342;8.802;2022-10-01T04:55:12;9.18;;;4.60;;
49464;SDS011;35358;49.342;8.802;2022-10-01T04:57:41;5.10;;;4.22;;
49464;SDS011;35358;49.342;8.802;2022-10-01T05:00:09;5.65;;;4.60;;
49464;SDS011;35358;49.342;8.802;2022-10-01T05:02:36;14.50;;;4.73;;
49464;SDS011;35358;49.342;8.802;2022-10-01T05:05:03;6.18;;;4.88;;
49464;SDS011;35358;49.342;8.802;2022-10-01T05:07:33;6.47;;;4.95;;
49464;SDS011;35358;49.342;8.802;2022-10-01T05:09:59;8.07;;;4.65;;
49464;SDS011;35358;49.342;8.802;2022-10-01T05:12:26;7.93;;;4.80;;
49464;SDS011;35358;49.342;8.802;2022-10-01T05:14:52;6.13;;;4.57;;
49464;SDS011;35358;49.342;8.802;2022-10-01T05:17:19;6.07;;;4.63;;
49464;SDS011;35358;49.342;8.802;2022-10-01T05:19:48;6.05;;;4.28;;
49464;SDS011;35358;49.342;8.802;2022-10-01T05:22:16;9.85;;;4.03;;
49464;SDS011;35358;49.342;8.802;2022-10-01T05:24:44;7.57;;;5.18;;
49464;SDS011;35358;49.342;8.802;2022-10-01T05:27:12;6.50;;;5.40;;
49464;SDS011;35358;49.342;8.802;2022-10-01T05:29:40;8.32;;;5.40;;
49464;SDS011;35358;49.342;8.802;2022-10-01T05:32:11;8.73;;;5.00;;
49464;SDS011;35358;49.342;8.802;2022-10-01T05:34:39;7.35;;;4.43;;
49464;SDS011;35358;49.342;8.802;2022-10-01T05:37:05;7.40;;;4.40;;
49464;SDS011;35358;49.342;8.802;2022-10-01T05:39:36;5.80;;;4.95;;
49464;SDS011;35358;49.342;8.802;2022-10-01T05:42:04;7.25;;;4.68;;
49464;SDS011;35358;49.342;8.802;2022-10-01T05:44:29;6.10;;;4.60;;
49464;SDS011;35358;49.342;8.802;2022-10-01T05:47:02;10.13;;;4.80;;
49464;SDS011;35358;49.342;8.802;2022-10-01T05:52:00;6.88;;;4.50;;
49464;SDS011;35358;49.342;8.802;2022-10-01T05:54:26;7.30;;;4.60;;
49464;SDS011;35358;49.342;8.802;2022-10-01T05:56:55;6.03;;;5.28;;
49464;SDS011;35358;49.342;8.802;2022-10-01T05:59:21;6.20;;;4.40;;
49464;SDS011;35358;49.342;8.802;2022-10-01T06:01:46;8.20;;;5.75;;
49464;SDS011;35358;49.342;8.802;2022-10-01T06:04:14;6.45;;;5.32;;
49464;SDS011;35358;49.342;8.802;2022-10-01T06:06:40;8.55;;;5.65;;
49464;SDS011;35358;49.342;8.802;2022-10-01T06:09:08;8.73;;;5.28;;
49464;SDS011;35358;49.342;8.802;2022-10-01T06:11:39;14.65;;;6.03;;
49464;SDS011;35358;49.342;8.802;2022-10-01T06:14:07;6.80;;;5.38;;
49464;SDS011;35358;49.342;8.802;2022-10-01T06:16:37;9.27;;;6.28;;
49464;SDS011;35358;49.342;8.802;2022-10-01T06:19:08;7.80;;;5.43;;
49464;SDS011;35358;49.342;8.802;2022-10-01T06:21:33;11.35;;;6.35;;
49464;SDS011;35358;49.342;8.802;2022-10-01T06:24:02;6.85;;;5.88;;
49464;SDS011;35358;49.342;8.802;2022-10-01T06:26:27;9.30;;;6.18;;
49464;SDS011;35358;49.342;8.802;2022-10-01T06:28:53;7.35;;;5.18;;
49464;SDS011;35358;49.342;8.802;2022-10-01T06:31:18;6.18;;;5.53;;
49464;SDS011;35358;49.342;8.802;2022-10-01T06:33:47;7.35;;;5.63;;
49464;SDS011;35358;49.342;8.802;2022-10-01T06:36:13;8.95;;;5.45;;
49464;SDS011;35358;49.342;8.802;2022-10-01T06:38:38;7.32;;;5.68;;
49464;SDS011;35358;49.342;8.802;2022-10-01T06:41:04;10.68;;;5.68;;
49464;SDS011;35358;49.342;8.802;2022-10-01T06:43:30;8.05;;;6.10;;
49464;SDS011;35358;49.342;8.802;2022-10-01T06:45:56;8.43;;;6.53;;
49464;SDS011;35358;49.342;8.802;2022-10-01T06:48:25;8.73;;;6.35;;
49464;SDS011;35358;49.342;8.802;2022-10-01T06:50:54;7.68;;;6.25;;
49464;SDS011;35358;49.342;8.802;2022-10-01T06:53:19;7.95;;;6.47;;
49464;SDS011;35358;49.342;8.802;2022-10-01T06:55:47;8.07;;;6.28;;
49464;SDS011;35358;49.342;8.802;2022-10-01T06:58:14;6.75;;;5.78;;
49464;SDS011;35358;49.342;8.802;2022-10-01T07:00:45;6.85;;;5.90;;
49464;SDS011;35358;49.342;8.802;2022-10-01T07:03:14;11.55;;;7.63;;
49464;SDS011;35358;49.342;8.802;2022-10-01T07:05:47;11.38;;;8.07;;
49464;SDS011;35358;49.342;8.802;2022-10-01T07:08:15;12.40;;;8.23;;
49464;SDS011;35358;49.342;8.802;2022-10-01T07:10:41;9.95;;;8.00;;
49464;SDS011;35358;49.342;8.802;2022-10-01T07:13:13;12.40;;;7.38;;
49464;SDS011;35358;49.342;8.802;2022-10-01T07:15:44;12.15;;;8.40;;
49464;SDS011;35358;49.342;8.802;2022-10-01T07:18:12;10.20;;;7.55;;
49464;SDS011;35358;49.342;8.802;2022-10-01T07:20:40;14.77;;;11.38;;
49464;SDS011;35358;49.342;8.802;2022-10-01T07:23:08;14.43;;;9.45;;
49464;SDS011;35358;49.342;8.802;2022-10-01T07:25:38;12.18;;;9.27;;
49464;SDS011;35358;49.342;8.802;2022-10-01T07:28:08;11.85;;;8.40;;
49464;SDS011;35358;49.342;8.802;2022-10-01T07:30:42;9.23;;;6.45;;
49464;SDS011;35358;49.342;8.802;2022-10-01T07:33:11;7.70;;;5.68;;
49464;SDS011;35358;49.342;8.802;2022-10-01T07:35:37;6.15;;;4.63;;
49464;SDS011;35358;49.342;8.802;2022-10-01T07:38:05;6.97;;;4.10;;
49464;SDS011;35358;49.342;8.802;2022-10-01T07:40:34;5.68;;;3.90;;
49464;SDS011;35358;49.342;8.802;2022-10-01T07:43:04;6.50;;;4.82;;
49464;SDS011;35358;49.342;8.802;2022-10-01T07:45:30;7.43;;;4.38;;
49464;SDS011;35358;49.342;8.802;2022-10-01T07:47:56;4.28;;;3.60;;
49464;SDS011;35358;49.342;8.802;2022-10-01T07:52:53;4.68;;;3.80;;
49464;SDS011;35358;49.342;8.802;2022-10-01T07:55:20;6.28;;;3.38;;
49464;SDS011;35358;49.342;8.802;2022-10-01T07:57:52;5.93;;;4.30;;
49464;SDS011;35358;49.342;8.802;2022-10-01T08:00:22;5.90;;;5.05;;
49464;SDS011;35358;49.342;8.802;2022-10-01T08:02:49;6.20;;;4.50;;
49464;SDS011;35358;49.342;8.802;2022-10-01T08:05:20;8.35;;;4.00;;
49464;SDS011;35358;49.342;8.802;2022-10-01T08:07:56;7.95;;;4.20;;
49464;SDS011;35358;49.342;8.802;2022-10-01T08:10:28;6.15;;;4.55;;
49464;SDS011;35358;49.342;8.802;2022-10-01T08:13:07;4.25;;;2.80;;
49464;SDS011;35358;49.342;8.802;2022-10-01T08:15:43;3.72;;;2.30;;
49464;SDS011;35358;49.342;8.802;2022-10-01T08:18:10;5.00;;;2.35;;
49464;SDS011;35358;49.342;8.802;2022-10-01T08:20:37;4.22;;;2.78;;
49464;SDS011;35358;49.342;8.802;2022-10-01T08:23:08;3.58;;;2.33;;
49464;SDS011;35358;49.342;8.802;2022-10-01T08:25:35;3.38;;;2.38;;
49464;SDS011;35358;49.342;8.802;2022-10-01T08:28:02;3.75;;;2.45;;
49464;SDS011;35358;49.342;8.802;2022-10-01T08:30:28;3.63;;;2.33;;
49464;SDS011;35358;49.342;8.802;2022-10-01T08:32:55;2.50;;;2.17;;
49464;SDS011;35358;49.342;8.802;2022-10-01T08:35:22;3.08;;;1.90;;
49464;SDS011;35358;49.342;8.802;2022-10-01T08:37:51;3.28;;;1.92;;
49464;SDS011;35358;49.342;8.802;2022-10-01T08:40:17;4.05;;;1.80;;
49464;SDS011;35358;49.342;8.802;2022-10-01T08:42:53;3.08;;;2.10;;
49464;SDS011;35358;49.342;8.802;2022-10-01T08:45:26;6.50;;;2.65;;
49464;SDS011;35358;49.342;8.802;2022-10-01T08:50:40;4.57;;;1.90;;
49464;SDS011;35358;49.342;8.802;2022-10-01T08:53:13;2.80;;;1.80;;
49464;SDS011;35358;49.342;8.802;2022-10-01T08:55:54;2.47;;;1.83;;
49464;SDS011;35358;49.342;8.802;2022-10-01T08:58:23;1.98;;;1.55;;
49464;SDS011;35358;49.342;8.802;2022-10-01T09:00:53;4.97;;;2.10;;
49464;SDS011;35358;49.342;8.802;2022-10-01T09:03:19;2.92;;;2.03;;
49464;SDS011;35358;49.342;8.802;2022-10-01T09:16:58;3.15;;;1.52;;
49464;SDS011;35358;49.342;8.802;2022-10-01T09:27:18;3.33;;;1.55;;
49464;SDS011;35358;49.342;8.802;2022-10-01T09:29:52;2.45;;;1.55;;
49464;SDS011;35358;49.342;8.802;2022-10-01T09:32:29;4.63;;;1.65;;
49464;SDS011;35358;49.342;8.802;2022-10-01T09:35:10;4.15;;;1.60;;
49464;SDS011;35358;49.342;8.802;2022-10-01T09:38:04;3.40;;;1.52;;
49464;SDS011;35358;49.342;8.802;2022-10-01T09:40:50;2.15;;;1.60;;
49464;SDS011;35358;49.342;8.802;2022-10-01T09:43:20;3.70;;;1.55;;
49464;SDS011;35358;49.342;8.802;2022-10-01T09:45:51;2.78;;;1.52;;
49464;SDS011;35358;49.342;8.802;2022-10-01T09:48:31;2.20;;;1.83;;
49464;SDS011;35358;49.342;8.802;2022-10-01T09:51:18;5.78;;;1.83;;
49464;SDS011;35358;49.342;8.802;2022-10-01T09:54:14;4.78;;;1.50;;
49464;SDS011;35358;49.342;8.802;2022-10-01T09:59:21;3.78;;;1.33;;
49464;SDS011;35358;49.342;8.802;2022-10-01T10:01:54;3.30;;;1.35;;
49464;SDS011;35358;49.342;8.802;2022-10-01T10:04:22;3.72;;;2.17;;
49464;SDS011;35358;49.342;8.802;2022-10-01T10:06:49;2.58;;;1.27;;
49464;SDS011;35358;49.342;8.802;2022-10-01T10:09:26;1.88;;;1.27;;
49464;SDS011;35358;49.342;8.802;2022-10-01T10:11:56;2.63;;;1.10;;
49464;SDS011;35358;49.342;8.802;2022-10-01T10:14:32;1.95;;;1.25;;
49464;SDS011;35358;49.342;8.802;2022-10-01T10:17:04;2.22;;;1.52;;
49464;SDS011;35358;49.342;8.802;2022-10-01T10:19:36;2.67;;;1.40;;
49464;SDS011;35358;49.342;8.802;2022-10-01T10:22:11;2.15;;;1.27;;
49464;SDS011;35358;49.342;8.802;2022-10-01T10:24:46;1.50;;;1.25;;
49464;SDS011;35358;49.342;8.802;2022-10-01T10:27:19;4.15;;;1.88;;
49464;SDS011;35358;49.342;8.802;2022-10-01T10:33:00;3.63;;;1.40;;
49464;SDS011;35358;49.342;8.802;2022-10-01T10:35:32;2.20;;;1.35;;
49464;SDS011;35358;49.342;8.802;2022-10-01T10:38:00;0.98;;;0.90;;
49464;SDS011;35358;49.342;8.802;2022-10-01T10:40:27;3.50;;;1.48;;
49464;SDS011;35358;49.342;8.802;2022-10-01T10:42:58;1.65;;;1.20;;
49464;SDS011;35358;49.342;8.802;2022-10-01T10:45:29;5.07;;;1.52;;
49464;SDS011;35358;49.342;8.802;2022-10-01T10:48:00;1.73;;;1.00;;
49464;SDS011;35358;49.342;8.802;2022-10-01T10:52:55;1.65;;;1.00;;
49464;SDS011;35358;49.342;8.802;2022-10-01T10:55:23;1.42;;;1.10;;
49464;SDS011;35358;49.342;8.802;2022-10-01T10:57:49;2.35;;;1.20;;
49464;SDS011;35358;49.342;8.802;2022-10-01T11:00:19;2.10;;;1.60;;
49464;SDS011;35358;49.342;8.802;2022-10-01T11:02:58;1.38;;;1.25;;
49464;SDS011;35358;49.342;8.802;2022-10-01T11:05:31;2.10;;;1.10;;
49464;SDS011;35358;49.342;8.802;2022-10-01T11:08:04;1.38;;;1.13;;
49464;SDS011;35358;49.342;8.802;2022-10-01T11:10:41;2.63;;;1.15;;
49464;SDS011;35358;49.342;8.802;2022-10-01T11:33:42;2.83;;;1.25;;
49464;SDS011;35358;49.342;8.802;2022-10-01T11:39:08;1.20;;;1.10;;
49464;SDS011;35358;49.342;8.802;2022-10-01T11:41:49;2.47;;;1.20;;
49464;SDS011;35358;49.342;8.802;2022-10-01T11:44:51;1.13;;;0.85;;
49464;SDS011;35358;49.342;8.802;2022-10-01T11:47:24;1.30;;;1.08;;
49464;SDS011;35358;49.342;8.802;2022-10-01T11:50:15;4.35;;;0.70;;
49464;SDS011;35358;49.342;8.802;2022-10-01T11:53:06;0.80;;;0.80;;
49464;SDS011;35358;49.342;8.802;2022-10-01T11:55:41;1.13;;;0.90;;
49464;SDS011;35358;49.342;8.802;2022-10-01T12:01:24;2.03;;;1.27;;
49464;SDS011;35358;49.342;8.802;2022-10-01T12:04:10;1.55;;;0.93;;
49464;SDS011;35358;49.342;8.802;2022-10-01T12:09:16;1.13;;;0.80;;
49464;SDS011;35358;49.342;8.802;2022-10-01T12:11:56;4.43;;;1.13;;
49464;SDS011;35358;49.342;8.802;2022-10-01T12:14:43;1.83;;;0.85;;
49464;SDS011;35358;49.342;8.802;2022-10-01T12:19:49;9.68;;;1.30;;
49464;SDS011;35358;49.342;8.802;2022-10-01T12:22:29;0.80;;;0.75;;
49464;SDS011;35358;49.342;8.802;2022-10-01T12:24:59;2.03;;;1.02;;
49464;SDS011;35358;49.342;8.802;2022-10-01T12:30:21;1.17;;;0.93;;
49464;SDS011;35358;49.342;8.802;2022-10-01T12:33:11;1.08;;;0.70;;
49464;SDS011;35358;49.342;8.802;2022-10-01T12:36:03;0.90;;;0.70;;
49464;SDS011;35358;49.342;8.802;2022-10-01T12:49:54;2.25;;;0.80;;
49464;SDS011;35358;49.342;8.802;2022-10-01T12:55:08;1.00;;;0.70;;
49464;SDS011;35358;49.342;8.802;2022-10-01T12:57:41;3.90;;;0.68;;
49464;SDS011;35358;49.342;8.802;2022-10-01T13:00:28;0.73;;;0.55;;
49464;SDS011;35358;49.342;8.802;2022-10-01T13:03:10;0.47;;;0.47;;
49464;SDS011;35358;49.342;8.802;2022-10-01T13:09:05;1.00;;;0.60;;
49464;SDS011;35358;49.342;8.802;2022-10-01T13:14:30;1.05;;;0.80;;
49464;SDS011;35358;49.342;8.802;2022-10-01T13:19:58;0.47;;;0.45;;
49464;SDS011;35358;49.342;8.802;2022-10-01T13:28:15;0.70;;;0.50;;
49464;SDS011;35358;49.342;8.802;2022-10-01T13:33:26;2.95;;;0.60;;
49464;SDS011;35358;49.342;8.802;2022-10-01T13:35:59;1.23;;;0.80;;
49464;SDS011;35358;49.342;8.802;2022-10-01T13:41:05;3.13;;;0.40;;
49464;SDS011;35358;49.342;8.802;2022-10-01T13:46:28;1.00;;;0.70;;
49464;SDS011;35358;49.342;8.802;2022-10-01T13:48:55;3.03;;;0.70;;
49464;SDS011;35358;49.342;8.802;2022-10-01T13:51:39;1.10;;;0.77;;
49464;SDS011;35358;49.342;8.802;2022-10-01T13:54:13;4.20;;;0.80;;
49464;SDS011;35358;49.342;8.802;2022-10-01T13:56:51;1.58;;;0.70;;
49464;SDS011;35358;49.342;8.802;2022-10-01T13:59:40;1.25;;;0.68;;
49464;SDS011;35358;49.342;8.802;2022-10-01T14:02:27;2.88;;;1.05;;
49464;SDS011;35358;49.342;8.802;2022-10-01T14:05:02;0.90;;;0.65;;
49464;SDS011;35358;49.342;8.802;2022-10-01T14:07:49;2.25;;;1.00;;
49464;SDS011;35358;49.342;8.802;2022-10-01T14:10:19;0.90;;;0.90;;
49464;SDS011;35358;49.342;8.802;2022-10-01T14:12:48;1.42;;;0.88;;
49464;SDS011;35358;49.342;8.802;2022-10-01T14:15:44;1.00;;;0.55;;
49464;SDS011;35358;49.342;8.802;2022-10-01T14:18:24;1.08;;;0.75;;
49464;SDS011;35358;49.342;8.802;2022-10-01T14:26:36;1.45;;;0.63;;
49464;SDS011;35358;49.342;8.802;2022-10-01T14:32:07;2.00;;;0.80;;
49464;SDS011;35358;49.342;8.802;2022-10-01T14:34:59;3.65;;;0.70;;
49464;SDS011;35358;49.342;8.802;2022-10-01T14:37:44;2.25;;;0.98;;
49464;SDS011;35358;49.342;8.802;2022-10-01T14:42:59;4.00;;;0.90;;
49464;SDS011;35358;49.342;8.802;2022-10-01T14:45:26;1.60;;;1.05;;
49464;SDS011;35358;49.342;8.802;2022-10-01T14:48:02;3.33;;;0.80;;
49464;SDS011;35358;49.342;8.802;2022-10-01T14:50:34;2.35;;;0.90;;
49464;SDS011;35358;49.342;8.802;2022-10-01T14:53:04;1.67;;;0.77;;
49464;SDS011;35358;49.342;8.802;2022-10-01T14:55:32;0.82;;;0.55;;
49464;SDS011;35358;49.342;8.802;2022-10-01T14:58:01;3.47;;;0.67;;
49464;SDS011;35358;49.342;8.802;2022-10-01T15:00:29;1.70;;;0.60;;
49464;SDS011;35358;49.342;8.802;2022-10-01T15:03:09;1.00;;;0.70;;
49464;SDS011;35358;49.342;8.802;2022-10-01T15:05:40;0.80;;;0.65;;
49464;SDS011;35358;49.342;8.802;2022-10-01T15:10:35;2.17;;;0.90;;
49464;SDS011;35358;49.342;8.802;2022-10-01T15:13:34;0.95;;;0.50;;
49464;SDS011;35358;49.342;8.802;2022-10-01T15:16:02;1.70;;;0.73;;
49464;SDS011;35358;49.342;8.802;2022-10-01T15:18:29;2.35;;;0.68;;
49464;SDS011;35358;49.342;8.802;2022-10-01T15:20:59;1.27;;;0.80;;
49464;SDS011;35358;49.342;8.802;2022-10-01T15:23:29;1.85;;;0.68;;
49464;SDS011;35358;49.342;8.802;2022-10-01T15:25:56;2.35;;;0.63;;
49464;SDS011;35358;49.342;8.802;2022-10-01T15:28:28;1.33;;;0.75;;
49464;SDS011;35358;49.342;8.802;2022-10-01T15:30:58;2.80;;;0.77;;
49464;SDS011;35358;49.342;8.802;2022-10-01T15:33:35;2.80;;;0.90;;
49464;SDS011;35358;49.342;8.802;2022-10-01T15:36:05;2.17;;;0.90;;
49464;SDS011;35358;49.342;8.802;2022-10-01T15:38:35;1.00;;;0.50;;
49464;SDS011;35358;49.342;8.802;2022-10-01T15:41:02;2.75;;;1.00;;
49464;SDS011;35358;49.342;8.802;2022-10-01T15:51:49;1.40;;;0.60;;
49464;SDS011;35358;49.342;8.802;2022-10-01T15:54:35;0.50;;;0.43;;
49464;SDS011;35358;49.342;8.802;2022-10-01T15:57:05;0.98;;;0.60;;
49464;SDS011;35358;49.342;8.802;2022-10-01T15:59:31;2.67;;;1.13;;
49464;SDS011;35358;49.342;8.802;2022-10-01T16:02:00;1.75;;;0.60;;
49464;SDS011;35358;49.342;8.802;2022-10-01T16:04:32;6.55;;;0.93;;
49464;SDS011;35358;49.342;8.802;2022-10-01T16:06:58;3.17;;;0.70;;
49464;SDS011;35358;49.342;8.802;2022-10-01T16:09:26;4.13;;;0.80;;
49464;SDS011;35358;49.342;8.802;2022-10-01T16:14:38;1.65;;;0.90;;
49464;SDS011;35358;49.342;8.802;2022-10-01T16:19:40;4.10;;;1.00;;
49464;SDS011;35358;49.342;8.802;2022-10-01T16:27:19;2.63;;;1.17;;
49464;SDS011;35358;49.342;8.802;2022-10-01T16:29:51;1.25;;;0.90;;
49464;SDS011;35358;49.342;8.802;2022-10-01T16:32:17;1.52;;;1.10;;
49464;SDS011;35358;49.342;8.802;2022-10-01T16:34:45;3.10;;;1.00;;
49464;SDS011;35358;49.342;8.802;2022-10-01T16:37:11;2.75;;;0.90;;
49464;SDS011;35358;49.342;8.802;2022-10-01T16:39:41;4.95;;;0.82;;
49464;SDS011;35358;49.342;8.802;2022-10-01T16:42:10;3.83;;;1.67;;
49464;SDS011;35358;49.342;8.802;2022-10-01T16:44:47;2.75;;;1.25;;
49464;SDS011;35358;49.342;8.802;2022-10-01T16:47:15;6.63;;;1.35;;
49464;SDS011;35358;49.342;8.802;2022-10-01T16:49:41;2.97;;;1.13;;
49464;SDS011;35358;49.342;8.802;2022-10-01T16:52:09;2.20;;;1.38;;
49464;SDS011;35358;49.342;8.802;2022-10-01T16:54:40;1.95;;;1.30;;
49464;SDS011;35358;49.342;8.802;2022-10-01T16:57:05;1.95;;;1.10;;
49464;SDS011;35358;49.342;8.802;2022-10-01T16:59:31;2.38;;;0.90;;
49464;SDS011;35358;49.342;8.802;2022-10-01T17:01:57;1.95;;;1.20;;
49464;SDS011;35358;49.342;8.802;2022-10-01T17:04:26;2.53;;;0.98;;
49464;SDS011;35358;49.342;8.802;2022-10-01T17:06:55;2.97;;;1.13;;
49464;SDS011;35358;49.342;8.802;2022-10-01T17:09:20;1.65;;;1.00;;
49464;SDS011;35358;49.342;8.802;2022-10-01T17:11:46;1.80;;;0.82;;
49464;SDS011;35358;49.342;8.802;2022-10-01T17:14:14;2.10;;;1.20;;
49464;SDS011;35358;49.342;8.802;2022-10-01T17:16:47;1.60;;;0.80;;
49464;SDS011;35358;49.342;8.802;2022-10-01T17:19:14;2.25;;;1.15;;
49464;SDS011;35358;49.342;8.802;2022-10-01T17:21:40;1.08;;;0.93;;
49464;SDS011;35358;49.342;8.802;2022-10-01T17:24:06;3.13;;;2.35;;
49464;SDS011;35358;49.342;8.802;2022-10-01T17:26:35;1.75;;;0.98;;
49464;SDS011;35358;49.342;8.802;2022-10-01T17:29:02;2.95;;;1.10;;
49464;SDS011;35358;49.342;8.802;2022-10-01T17:31:30;1.40;;;1.00;;
49464;SDS011;35358;49.342;8.802;2022-10-01T17:33:56;1.77;;;0.90;;
49464;SDS011;35358;49.342;8.802;2022-10-01T17:36:22;2.00;;;1.30;;
49464;SDS011;35358;49.342;8.802;2022-10-01T17:38:49;2.42;;;0.88;;
49464;SDS011;35358;49.342;8.802;2022-10-01T17:41:17;2.92;;;1.33;;
49464;SDS011;35358;49.342;8.802;2022-10-01T17:43:48;2.30;;;0.88;;
49464;SDS011;35358;49.342;8.802;2022-10-01T17:46:13;3.78;;;1.42;;
49464;SDS011;35358;49.342;8.802;2022-10-01T17:48:39;2.55;;;0.93;;
49464;SDS011;35358;49.342;8.802;2022-10-01T17:51:06;1.65;;;0.85;;
49464;SDS011;35358;49.342;8.802;2022-10-01T17:53:34;2.35;;;0.80;;